Time;durP1;ratioP1;P1;durP2;ratioP2;P2;SDS_P1;SDS_P2;PMS_P1;PMS_P2;Temp;Humidity;BMP_temperature;BMP_pressure;BME280_temperature;BME280_humidity;BME280_pressure;Samples;Min_cycle;Max_cycle;Signal;HPM_P1;HPM_P2
2022/06/17 00:01:03;;;;;;;3.55;3.13;;;;;;;23.53;45.40;101246.34;5055526;28;20499;-69
2022/06/17 00:03:33;;;;;;;4.03;3.40;;;;;;;23.53;45.40;101247.16;5044661;28;20425;-70
2022/06/17 00:06:02;;;;;;;3.92;3.30;;;;;;;23.47;45.64;101246.25;5057839;28;20450;-71
2022/06/17 00:08:32;;;;;;;3.90;3.60;;;;;;;23.47;45.42;101250.84;5060638;28;20428;-70
2022/06/17 00:11:01;;;;;;;4.40;3.30;;;;;;;23.48;45.64;101244.38;5057943;28;20502;-71
2022/06/17 00:13:28;;;;;;;3.88;3.10;;;;;;;23.41;45.32;101244.53;5058073;28;20508;-71
2022/06/17 00:15:56;;;;;;;3.55;3.25;;;;;;;23.42;45.64;101246.16;5047292;28;20508;-70
2022/06/17 00:18:23;;;;;;;3.50;3.20;;;;;;;23.41;45.53;101233.72;5058431;28;20473;-71
2022/06/17 00:20:51;;;;;;;3.78;3.47;;;;;;;23.42;45.34;101229.91;5057541;28;20426;-71
2022/06/17 00:23:20;;;;;;;3.93;3.30;;;;;;;23.43;45.36;101230.75;5055618;28;21001;-72
2022/06/17 00:25:48;;;;;;;4.18;3.40;;;;;;;23.39;45.44;101235.00;5048576;28;20432;-70
2022/06/17 00:28:20;;;;;;;3.60;3.30;;;;;;;23.38;45.73;101231.47;5059541;28;20458;-71
2022/06/17 00:30:47;;;;;;;4.45;3.20;;;;;;;23.39;45.51;101232.28;5057027;28;20500;-71
2022/06/17 00:33:15;;;;;;;3.67;3.37;;;;;;;23.39;45.67;101229.59;5065008;28;20520;-72
2022/06/17 00:35:45;;;;;;;4.93;3.25;;;;;;;23.38;45.65;101228.78;5058062;28;20502;-72
2022/06/17 00:38:15;;;;;;;5.40;3.28;;;;;;;23.37;45.58;101223.59;5051213;28;20467;-71
2022/06/17 00:40:43;;;;;;;3.80;3.30;;;;;;;23.35;45.84;101225.72;5048712;28;20427;-70
2022/06/17 00:43:25;;;;;;;3.60;3.30;;;;;;;23.33;45.50;101217.84;5065233;28;20471;-72
2022/06/17 00:46:02;;;;;;;3.70;3.40;;;;;;;23.31;45.57;101228.09;5064165;28;20910;-72
2022/06/17 00:48:34;;;;;;;3.70;3.33;;;;;;;23.29;46.00;101225.63;5049537;28;20956;-70
2022/06/17 00:51:06;;;;;;;4.50;3.30;;;;;;;23.27;45.71;101227.75;5050959;28;20412;-71
2022/06/17 00:53:38;;;;;;;4.30;3.50;;;;;;;23.27;45.91;101225.06;5046032;28;20436;-71
2022/06/17 00:56:12;;;;;;;3.80;3.40;;;;;;;23.26;45.67;101217.19;5056290;28;20503;-71
2022/06/17 01:01:42;;;;;;;3.90;3.60;;;;;;;23.20;46.07;101213.56;5103020;27;20441;-70
2022/06/17 01:04:11;;;;;;;3.90;3.60;;;;;;;23.17;46.14;101211.34;5081697;28;20497;-73
2022/06/17 01:06:42;;;;;;;4.40;3.60;;;;;;;23.21;45.91;101208.97;5085802;28;20416;-72
2022/06/17 01:12:03;;;;;;;3.63;3.33;;;;;;;23.20;46.16;101213.56;5084922;28;20417;-71
2022/06/17 01:14:30;;;;;;;4.40;3.43;;;;;;;23.18;46.25;101207.59;5078160;28;20849;-71
2022/06/17 01:16:59;;;;;;;4.20;3.63;;;;;;;23.20;45.88;101207.34;5079507;28;20497;-70
2022/06/17 01:19:34;;;;;;;4.55;3.42;;;;;;;23.23;45.80;101207.69;5081385;28;20434;-72
2022/06/17 01:22:23;;;;;;;4.65;3.40;;;;;;;23.25;45.95;101210.16;5076771;28;20802;-70
2022/06/17 01:24:53;;;;;;;4.15;3.30;;;;;;;23.24;45.92;101212.00;5071594;28;20446;-72
2022/06/17 01:27:24;;;;;;;5.13;3.40;;;;;;;23.25;45.85;101199.34;5085580;28;20497;-71
2022/06/17 01:29:51;;;;;;;4.22;3.35;;;;;;;23.25;46.14;101202.84;5081493;28;20988;-71
2022/06/17 01:32:22;;;;;;;4.50;3.47;;;;;;;23.25;46.07;101202.03;5084282;28;20409;-71
2022/06/17 01:34:49;;;;;;;3.70;3.40;;;;;;;23.23;46.17;101202.28;5069019;28;20503;-71
2022/06/17 01:37:17;;;;;;;4.45;3.30;;;;;;;23.22;45.66;101200.63;5081473;28;20818;-72
2022/06/17 01:39:44;;;;;;;4.88;3.60;;;;;;;23.22;45.71;101208.72;5078696;28;20426;-72
2022/06/17 01:42:12;;;;;;;4.30;3.30;;;;;;;23.18;46.05;101206.78;5078000;28;20412;-71
2022/06/17 01:44:42;;;;;;;3.95;3.38;;;;;;;23.16;45.73;101207.00;5081972;28;20414;-71
2022/06/17 01:47:15;;;;;;;4.53;3.73;;;;;;;23.13;46.05;101204.78;5071330;28;20501;-71
2022/06/17 01:49:47;;;;;;;4.85;3.83;;;;;;;23.11;46.06;101212.31;5080949;28;20804;-72
2022/06/17 01:52:19;;;;;;;4.68;3.42;;;;;;;23.06;46.32;101213.03;5078234;28;20425;-71
2022/06/17 01:54:49;;;;;;;4.13;3.63;;;;;;;23.01;46.02;101206.69;5072258;28;20416;-70
2022/06/17 01:57:22;;;;;;;3.80;3.50;;;;;;;22.97;46.13;101206.34;5084870;28;20792;-72
2022/06/17 01:59:55;;;;;;;4.22;3.75;;;;;;;22.97;46.37;101205.53;5082077;28;20434;-73
2022/06/17 02:02:23;;;;;;;4.22;3.83;;;;;;;22.95;46.73;101208.47;5085232;28;20501;-71
2022/06/17 02:04:54;;;;;;;4.55;3.92;;;;;;;22.93;46.43;101207.88;5074071;28;20922;-71
2022/06/17 02:07:26;;;;;;;4.10;3.70;;;;;;;22.93;46.40;101212.47;5084923;28;20426;-72
2022/06/17 02:09:53;;;;;;;3.97;3.58;;;;;;;22.90;46.48;101211.91;5083809;28;20509;-71
2022/06/17 02:12:24;;;;;;;4.65;4.18;;;;;;;22.77;46.62;101214.88;5067329;28;20424;-73
2022/06/17 02:14:53;;;;;;;4.63;3.80;;;;;;;22.76;46.95;101218.66;5060007;28;20482;-73
2022/06/17 02:17:21;;;;;;;5.05;3.67;;;;;;;22.75;46.75;101221.59;5059767;28;20419;-70
2022/06/17 02:19:48;;;;;;;5.30;3.90;;;;;;;22.74;46.59;101218.03;5071712;28;20514;-73
2022/06/17 02:22:20;;;;;;;4.13;3.80;;;;;;;22.73;47.00;101221.00;5071106;28;20506;-71
2022/06/17 02:24:50;;;;;;;6.20;3.70;;;;;;;22.71;46.65;101216.66;5063763;28;20420;-72
2022/06/17 02:27:20;;;;;;;5.00;3.67;;;;;;;22.69;47.03;101220.66;5055728;28;20419;-71
2022/06/17 02:29:50;;;;;;;4.15;3.75;;;;;;;22.67;46.91;101220.91;5064410;28;20499;-72
2022/06/17 02:32:19;;;;;;;5.18;3.75;;;;;;;22.67;46.72;101222.75;5064222;28;20497;-71
2022/06/17 02:34:52;;;;;;;5.47;3.90;;;;;;;22.64;47.00;101220.53;5070899;28;20418;-72
2022/06/17 02:37:20;;;;;;;4.97;4.20;;;;;;;22.62;47.03;101220.78;5055828;28;20423;-71
2022/06/17 02:39:50;;;;;;;4.15;3.67;;;;;;;22.62;47.18;101217.28;5056798;28;20423;-71
2022/06/17 02:42:21;;;;;;;4.53;3.90;;;;;;;22.60;47.20;101216.66;5064191;28;20502;-70
2022/06/17 02:44:53;;;;;;;4.80;3.83;;;;;;;22.57;47.35;101207.16;5066851;28;20507;-71
2022/06/17 02:47:21;;;;;;;4.03;3.70;;;;;;;22.56;47.56;101207.38;5070529;28;20867;-71
2022/06/17 02:49:48;;;;;;;4.55;3.95;;;;;;;22.53;47.68;101209.50;5059640;28;20877;-71
2022/06/17 02:52:18;;;;;;;5.45;4.10;;;;;;;22.53;47.86;101214.91;5054928;28;20507;-72
2022/06/17 02:54:49;;;;;;;4.27;3.80;;;;;;;22.56;47.75;101210.91;5051744;28;20451;-71
2022/06/17 02:57:29;;;;;;;4.10;3.70;;;;;;;22.58;47.43;101214.22;5059400;28;20419;-70
2022/06/17 03:00:07;;;;;;;4.68;3.90;;;;;;;22.61;47.74;101218.31;5061311;28;20454;-73
2022/06/17 03:02:39;;;;;;;4.43;3.85;;;;;;;22.66;47.46;101221.13;5069868;28;20410;-71
2022/06/17 03:05:15;;;;;;;4.80;3.92;;;;;;;22.71;47.11;101219.34;5056016;28;20507;-73
2022/06/17 03:07:44;;;;;;;4.10;3.70;;;;;;;22.83;47.05;101229.28;5068015;28;20415;-71
2022/06/17 03:10:15;;;;;;;4.75;4.03;;;;;;;22.88;47.03;101224.00;5065796;28;20419;-70
2022/06/17 03:12:44;;;;;;;5.00;3.72;;;;;;;22.97;46.66;101224.44;5061528;28;20492;-71
2022/06/17 03:15:15;;;;;;;4.60;3.83;;;;;;;23.02;46.66;101224.56;5055464;28;20498;-71
2022/06/17 03:17:44;;;;;;;4.25;3.83;;;;;;;23.04;46.24;101230.53;5057970;28;20494;-70
2022/06/17 03:20:15;;;;;;;4.72;3.90;;;;;;;23.07;46.58;101232.81;5069203;28;20928;-71
2022/06/17 03:22:44;;;;;;;5.28;3.80;;;;;;;23.03;46.33;101237.84;5058173;28;20500;-70
2022/06/17 03:25:18;;;;;;;4.65;3.70;;;;;;;22.89;46.45;101241.88;5058179;28;20411;-71
2022/06/17 03:27:48;;;;;;;5.60;3.60;;;;;;;22.91;46.29;101245.97;5057993;28;20494;-71
2022/06/17 03:30:24;;;;;;;3.95;3.28;;;;;;;22.96;46.64;101249.84;5062792;28;20417;-72
2022/06/17 03:33:07;;;;;;;5.60;3.67;;;;;;;22.95;46.39;101240.91;5066356;28;20416;-72
2022/06/17 03:35:36;;;;;;;5.28;3.50;;;;;;;23.09;46.12;101245.00;5056420;28;20906;-73
2022/06/17 03:38:09;;;;;;;7.53;3.72;;;;;;;23.21;45.76;101244.97;5069623;28;20498;-73
2022/06/17 03:40:43;;;;;;;6.57;4.10;;;;;;;23.32;45.40;101248.69;5069682;28;20884;-70
2022/06/17 03:43:17;;;;;;;7.32;3.60;;;;;;;23.35;45.24;101247.38;5068377;28;20423;-71
2022/06/17 03:45:49;;;;;;;8.15;3.70;;;;;;;23.38;45.03;101249.59;5064817;28;20415;-74
2022/06/17 03:48:35;;;;;;;14.45;4.05;;;;;;;23.41;45.12;101249.94;5068975;28;20585;-72
2022/06/17 03:51:02;;;;;;;6.30;4.18;;;;;;;23.43;45.03;101260.53;5067312;28;21005;-69
2022/06/17 03:53:31;;;;;;;6.05;3.50;;;;;;;23.41;44.71;101259.94;5068232;28;20419;-71
2022/06/17 03:56:00;;;;;;;7.95;3.72;;;;;;;23.41;45.13;101251.84;5068508;28;20414;-74
2022/06/17 03:58:27;;;;;;;7.65;3.67;;;;;;;23.43;44.96;101255.13;5068709;28;20783;-72
2022/06/17 04:01:00;;;;;;;5.68;3.63;;;;;;;23.38;45.40;101263.94;5068472;28;20525;-72
2022/06/17 04:03:33;;;;;;;4.60;3.92;;;;;;;23.37;45.28;101265.03;5060511;28;20502;-69
2022/06/17 04:06:03;;;;;;;8.13;3.95;;;;;;;23.39;45.26;101257.47;5059503;28;20918;-69
2022/06/17 04:08:31;;;;;;;5.32;4.70;;;;;;;23.39;45.05;101246.66;5056501;28;20867;-72
2022/06/17 04:10:59;;;;;;;8.00;4.93;;;;;;;23.31;45.18;101238.91;5056482;28;20427;-71
2022/06/17 04:13:32;;;;;;;7.63;5.65;;;;;;;23.32;45.25;101247.84;5058976;28;20537;-72
2022/06/17 04:16:14;;;;;;;10.35;7.63;;;;;;;23.34;45.00;101245.75;5061798;28;20418;-70
2022/06/17 04:18:41;;;;;;;9.35;7.43;;;;;;;23.35;45.20;101244.66;5069100;28;20885;-69
2022/06/17 04:21:11;;;;;;;10.13;7.30;;;;;;;23.36;45.59;101244.44;5069326;28;20493;-71
2022/06/17 04:23:38;;;;;;;6.97;5.88;;;;;;;23.39;45.27;101251.22;5052202;28;20413;-71
2022/06/17 04:26:11;;;;;;;11.67;6.97;;;;;;;23.41;45.28;101251.84;5064056;28;20423;-71
2022/06/17 04:28:42;;;;;;;9.70;6.53;;;;;;;23.48;45.16;101260.63;5068983;28;20506;-70
2022/06/17 04:31:18;;;;;;;12.68;7.45;;;;;;;23.58;45.02;101262.69;5062075;28;20491;-71
2022/06/17 04:34:03;;;;;;;12.50;7.38;;;;;;;23.70;44.75;101244.50;5069002;28;20411;-70
2022/06/17 04:36:34;;;;;;;9.30;5.68;;;;;;;23.83;44.40;101248.78;5058785;28;20416;-71
2022/06/17 04:39:04;;;;;;;11.98;6.53;;;;;;;23.90;44.52;101246.75;5054780;28;20497;-68
2022/06/17 04:41:36;;;;;;;8.32;5.63;;;;;;;23.96;44.67;101236.81;5058310;28;20437;-71
2022/06/17 04:44:05;;;;;;;9.07;5.70;;;;;;;24.03;44.22;101232.84;5053552;28;20494;-71
2022/06/17 04:46:37;;;;;;;7.97;5.18;;;;;;;23.95;44.05;101224.31;5057667;28;20916;-69
2022/06/17 04:49:05;;;;;;;11.43;5.55;;;;;;;23.97;43.98;101241.19;5056281;28;20426;-71
2022/06/17 04:51:35;;;;;;;7.63;5.00;;;;;;;24.07;43.89;101246.72;5052841;28;20545;-69
2022/06/17 04:54:05;;;;;;;9.32;5.85;;;;;;;24.10;43.87;101248.94;5068179;28;20498;-68
2022/06/17 04:56:34;;;;;;;7.38;5.50;;;;;;;24.03;44.09;101237.47;5064653;28;20417;-70
2022/06/17 04:59:15;;;;;;;7.97;5.38;;;;;;;24.10;43.89;101242.72;5066217;28;20499;-71
2022/06/17 05:01:44;;;;;;;6.85;5.30;;;;;;;24.11;43.52;101237.06;5067510;28;20434;-71
2022/06/17 05:04:12;;;;;;;8.70;5.20;;;;;;;24.18;43.79;101245.84;5064802;28;20855;-69
2022/06/17 05:06:38;;;;;;;8.50;5.70;;;;;;;24.26;43.81;101250.00;5066891;28;20506;-68
2022/06/17 05:09:16;;;;;;;10.45;6.90;;;;;;;24.36;43.88;101252.03;5068777;28;20406;-69
2022/06/17 05:11:46;;;;;;;9.95;6.72;;;;;;;24.52;43.80;101253.88;5067487;28;20501;-68
2022/06/17 05:14:21;;;;;;;10.43;7.18;;;;;;;24.72;43.77;101255.25;5067504;28;20415;-71
2022/06/17 05:16:49;;;;;;;11.25;6.45;;;;;;;24.94;43.31;101249.84;5072087;28;20497;-71
2022/06/17 05:19:16;;;;;;;10.52;6.82;;;;;;;25.19;42.94;101247.44;5062366;28;20417;-70
2022/06/17 05:21:43;;;;;;;7.40;5.90;;;;;;;25.54;42.51;101250.78;5067831;28;20431;-70
2022/06/17 05:24:12;;;;;;;7.97;5.90;;;;;;;25.84;42.02;101238.53;5062650;28;20494;-70
2022/06/17 05:26:39;;;;;;;7.47;6.18;;;;;;;26.20;41.45;101239.66;5068398;28;20490;-69
2022/06/17 05:29:08;;;;;;;7.93;5.60;;;;;;;26.51;40.55;101245.28;5061148;28;20493;-70
2022/06/17 05:31:35;;;;;;;9.30;5.07;;;;;;;26.78;40.31;101247.06;5051609;28;20466;-69
2022/06/17 05:34:04;;;;;;;8.48;5.28;;;;;;;27.14;39.15;101241.75;5053001;28;20408;-71
2022/06/17 05:36:31;;;;;;;7.45;5.18;;;;;;;27.42;38.37;101233.13;5055774;28;20446;-71
2022/06/17 05:38:58;;;;;;;7.88;5.43;;;;;;;27.68;38.15;101229.56;5057649;28;20499;-70
2022/06/17 05:41:25;;;;;;;7.47;5.03;;;;;;;28.01;37.33;101222.78;5057214;28;21467;-68
2022/06/17 05:43:53;;;;;;;4.80;4.13;;;;;;;28.40;35.70;101222.94;5051456;28;20491;-70
2022/06/17 05:46:20;;;;;;;5.20;3.97;;;;;;;28.82;35.19;101223.63;5061446;28;20430;-69
2022/06/17 05:48:47;;;;;;;6.53;4.03;;;;;;;29.26;34.05;101222.03;5060022;28;20409;-69
2022/06/17 05:51:15;;;;;;;7.72;3.65;;;;;;;29.80;32.90;101217.53;5054876;28;20500;-70
2022/06/17 05:53:42;;;;;;;5.60;3.10;;;;;;;30.33;32.02;101216.75;5058796;28;20418;-69
2022/06/17 05:56:09;;;;;;;5.38;3.50;;;;;;;30.90;31.15;101212.22;5064266;28;20415;-69
2022/06/17 05:58:36;;;;;;;3.50;3.20;;;;;;;31.40;29.65;101214.50;5072523;28;20502;-71
2022/06/17 06:01:03;;;;;;;5.43;3.50;;;;;;;31.89;29.11;101213.16;5072301;28;20431;-69
2022/06/17 06:03:30;;;;;;;4.45;3.30;;;;;;;32.39;28.81;101202.34;5072139;28;20406;-71
2022/06/17 06:05:57;;;;;;;6.03;3.67;;;;;;;32.85;28.33;101203.31;5072048;28;20501;-70
2022/06/17 06:08:26;;;;;;;4.93;3.42;;;;;;;33.47;27.36;101212.84;5068129;28;20494;-70
2022/06/17 06:10:53;;;;;;;4.03;3.37;;;;;;;34.00;26.69;101212.06;5069129;28;20794;-71
2022/06/17 06:13:22;;;;;;;6.25;3.60;;;;;;;34.56;25.73;101208.88;5062269;28;20412;-70
2022/06/17 06:15:51;;;;;;;3.40;3.10;;;;;;;35.03;25.30;101217.38;5055383;28;20408;-70
2022/06/17 06:18:23;;;;;;;4.38;2.97;;;;;;;35.45;24.41;101219.63;5055646;28;20495;-73
2022/06/17 06:20:51;;;;;;;6.43;3.33;;;;;;;35.83;23.92;101222.47;5059386;28;20423;-71
2022/06/17 06:23:18;;;;;;;3.78;3.10;;;;;;;36.30;23.07;101219.72;5055048;28;20417;-72
2022/06/17 06:25:47;;;;;;;4.30;3.10;;;;;;;36.68;23.15;101221.63;5072344;28;20435;-71
2022/06/17 06:28:18;;;;;;;5.72;3.40;;;;;;;37.07;23.12;101215.94;5068504;28;20489;-71
2022/06/17 06:30:51;;;;;;;3.53;3.22;;;;;;;37.04;22.89;101211.09;5066878;28;20407;-72
2022/06/17 06:33:18;;;;;;;9.35;3.60;;;;;;;36.85;23.14;101220.69;5067515;28;20915;-72
2022/06/17 06:35:45;;;;;;;4.33;3.30;;;;;;;36.86;22.86;101222.31;5071516;28;20411;-70
2022/06/17 06:38:12;;;;;;;5.75;3.17;;;;;;;36.62;23.16;101224.88;5070947;28;20493;-71
2022/06/17 06:40:40;;;;;;;30.23;9.60;;;;;;;36.35;23.94;101222.28;5067779;28;20409;-70
2022/06/17 06:43:14;;;;;;;5.75;4.10;;;;;;;36.28;23.96;101226.69;5071280;28;20425;-71
2022/06/17 06:45:41;;;;;;;4.25;3.85;;;;;;;36.36;24.39;101225.84;5070587;28;20912;-71
2022/06/17 06:48:10;;;;;;;5.40;4.00;;;;;;;36.30;24.30;101219.72;5063791;28;20494;-69
2022/06/17 06:50:39;;;;;;;8.47;4.20;;;;;;;36.11;24.45;101219.31;5070929;28;20418;-70
2022/06/17 06:53:07;;;;;;;7.15;3.30;;;;;;;36.05;24.71;101220.59;5071432;28;20407;-71
2022/06/17 06:55:35;;;;;;;4.00;3.60;;;;;;;35.39;25.63;101217.03;5066679;28;20418;-71
2022/06/17 06:58:05;;;;;;;4.18;3.65;;;;;;;35.18;25.49;101211.34;5066455;28;20415;-70
2022/06/17 07:00:35;;;;;;;9.45;5.13;;;;;;;35.06;26.17;101213.97;5069199;28;20502;-70
2022/06/17 07:03:03;;;;;;;8.32;4.40;;;;;;;34.79;26.50;101213.16;5060247;28;20514;-70
2022/06/17 07:05:30;;;;;;;6.65;4.15;;;;;;;34.71;26.65;101208.41;5070499;28;20411;-69
2022/06/17 07:07:58;;;;;;;7.90;4.30;;;;;;;34.78;26.51;101205.19;5067639;28;20977;-70
2022/06/17 07:10:27;;;;;;;6.10;3.97;;;;;;;34.79;26.54;101213.16;5070825;28;20411;-69
2022/06/17 07:12:55;;;;;;;5.67;3.97;;;;;;;34.80;26.50;101217.50;5070276;28;20984;-69
2022/06/17 07:15:23;;;;;;;4.18;3.78;;;;;;;34.76;26.54;101211.03;5066840;28;20452;-70
2022/06/17 07:18:00;;;;;;;4.90;4.03;;;;;;;34.55;26.86;101207.25;5070393;28;20464;-70
2022/06/17 07:20:31;;;;;;;4.78;4.28;;;;;;;34.33;27.30;101211.72;5070762;28;20493;-71
2022/06/17 07:22:58;;;;;;;4.70;4.25;;;;;;;34.14;27.67;101205.63;5067489;28;20515;-69
2022/06/17 07:25:25;;;;;;;4.93;3.70;;;;;;;33.90;27.85;101215.88;5068952;28;20407;-71
2022/06/17 07:27:52;;;;;;;5.82;3.67;;;;;;;33.68;28.24;101210.44;5066616;28;21025;-70
2022/06/17 07:30:20;;;;;;;4.60;4.20;;;;;;;33.45;28.84;101215.91;5065984;28;20411;-71
2022/06/17 07:32:48;;;;;;;7.95;4.53;;;;;;;33.27;29.05;101216.91;5067439;28;20411;-71
2022/06/17 07:35:17;;;;;;;5.45;4.07;;;;;;;33.09;29.56;101213.19;5066640;28;20411;-71
2022/06/17 07:40:30;;;;;;;3.95;3.60;;;;;;;32.57;29.63;101218.97;5059820;28;21017;-72
2022/06/17 07:42:58;;;;;;;4.38;3.90;;;;;;;32.41;30.32;101214.91;5055418;28;20436;-70
2022/06/17 07:45:26;;;;;;;5.35;4.10;;;;;;;32.22;30.64;101221.34;5070246;28;20589;-72
2022/06/17 07:47:54;;;;;;;4.63;3.97;;;;;;;32.06;30.77;101225.50;5082127;28;20422;-71
2022/06/17 07:50:26;;;;;;;6.53;4.53;;;;;;;31.93;31.51;101229.81;5070198;28;20419;-71
2022/06/17 07:52:54;;;;;;;6.87;4.30;;;;;;;31.65;31.61;101237.16;5057021;28;20412;-71
2022/06/17 07:55:21;;;;;;;5.93;4.22;;;;;;;31.52;32.06;101236.00;5070325;28;20558;-70
2022/06/17 07:57:49;;;;;;;5.40;3.92;;;;;;;31.44;31.92;101226.50;5069650;28;20498;-70
2022/06/17 08:00:21;;;;;;;4.63;3.70;;;;;;;31.36;32.50;101235.38;5068118;28;20879;-71
2022/06/17 08:02:48;;;;;;;3.80;3.50;;;;;;;31.26;32.76;101236.38;5068245;28;20804;-72
2022/06/17 08:05:15;;;;;;;4.13;3.72;;;;;;;31.17;33.01;101233.47;5069576;28;20411;-71
2022/06/17 08:07:43;;;;;;;10.48;4.05;;;;;;;31.10;33.49;101234.94;5068767;28;20981;-63
2022/06/17 08:10:14;;;;;;;5.50;3.40;;;;;;;30.93;33.17;101238.19;5071048;28;20976;-64
2022/06/17 08:12:41;;;;;;;5.05;4.00;;;;;;;30.86;33.91;101235.78;5068899;28;20493;-64
2022/06/17 08:15:09;;;;;;;7.27;3.70;;;;;;;30.78;33.86;101242.75;5069262;28;20421;-64
2022/06/17 08:17:36;;;;;;;5.45;3.72;;;;;;;30.65;34.08;101238.81;5069958;28;20421;-64
2022/06/17 08:20:34;;;;;;;4.78;4.10;;;;;;;30.62;33.88;101239.38;5089540;27;20418;-62
2022/06/17 08:23:02;;;;;;;6.18;3.50;;;;;;;30.64;33.81;101234.41;5078742;28;20437;-62
2022/06/17 08:25:30;;;;;;;5.47;3.73;;;;;;;30.64;33.96;101230.88;5076407;28;20456;-63
2022/06/17 08:27:58;;;;;;;4.93;3.88;;;;;;;30.58;33.89;101241.06;5082365;28;20496;-62
2022/06/17 08:30:28;;;;;;;6.90;3.78;;;;;;;30.69;33.62;101226.16;5077793;28;20398;-62
2022/06/17 08:32:56;;;;;;;5.10;3.55;;;;;;;30.67;33.71;101230.31;5071856;28;20939;-61
2022/06/17 08:35:27;;;;;;;3.55;3.25;;;;;;;30.59;33.87;101226.28;5079000;28;20918;-62
2022/06/17 08:37:58;;;;;;;7.07;4.70;;;;;;;30.63;34.14;101238.28;5077237;28;22167;-64
2022/06/17 08:40:36;;;;;;;9.10;3.90;;;;;;;30.69;33.91;101230.81;5070041;28;20428;-64
2022/06/17 08:43:19;;;;;;;5.35;3.63;;;;;;;30.78;33.93;101220.03;5077656;28;21107;-64
2022/06/17 08:45:53;;;;;;;6.05;3.78;;;;;;;30.80;33.83;101223.28;5075892;28;21027;-63
2022/06/17 08:48:35;;;;;;;7.60;4.50;;;;;;;30.73;33.82;101220.09;5083545;28;20418;-65
2022/06/17 08:51:14;;;;;;;5.03;3.67;;;;;;;30.84;33.70;101222.38;5080670;28;20450;-65
2022/06/17 08:54:11;;;;;;;3.47;3.17;;;;;;;30.98;33.66;101229.91;5070542;28;20493;-65
2022/06/17 08:56:47;;;;;;;6.55;3.40;;;;;;;31.13;32.97;101226.13;5070824;28;20418;-65
2022/06/17 08:59:29;;;;;;;6.77;3.20;;;;;;;31.17;33.62;101236.22;5075448;28;20428;-65
2022/06/17 09:02:06;;;;;;;4.13;3.30;;;;;;;31.29;33.30;101227.53;5083405;28;20410;-66
2022/06/17 09:04:51;;;;;;;8.37;3.93;;;;;;;31.45;33.13;101230.84;5075259;28;20427;-65
2022/06/17 09:07:28;;;;;;;5.25;3.40;;;;;;;31.63;32.26;101221.00;5068404;28;20473;-67
2022/06/17 09:10:14;;;;;;;6.22;3.30;;;;;;;31.72;31.85;101221.13;5072624;28;20434;-65
2022/06/17 09:12:52;;;;;;;5.82;3.20;;;;;;;31.86;31.57;101221.16;5067884;28;20412;-65
2022/06/17 09:15:30;;;;;;;3.75;2.80;;;;;;;31.86;30.97;101219.22;5084759;28;20490;-65
2022/06/17 09:18:06;;;;;;;4.35;3.13;;;;;;;31.96;31.39;101226.44;5085892;28;20410;-66
2022/06/17 09:20:37;;;;;;;4.45;2.80;;;;;;;32.00;30.15;101222.00;5079373;28;20956;-66
2022/06/17 09:23:06;;;;;;;4.45;3.08;;;;;;;31.95;31.00;101225.63;5078355;28;20497;-66
2022/06/17 09:25:39;;;;;;;3.75;3.05;;;;;;;31.93;30.78;101236.09;5079741;28;20807;-66
2022/06/17 09:28:10;;;;;;;3.97;2.90;;;;;;;31.96;29.57;101232.75;5068296;28;20414;-64
2022/06/17 09:30:50;;;;;;;3.50;3.10;;;;;;;31.80;29.34;101237.69;5062140;28;20421;-65
2022/06/17 09:33:22;;;;;;;3.63;2.60;;;;;;;31.67;29.64;101241.19;5051737;28;20499;-64
2022/06/17 09:35:59;;;;;;;4.60;2.42;;;;;;;31.58;29.76;101238.31;5052437;28;20412;-64
2022/06/17 09:38:33;;;;;;;4.15;2.55;;;;;;;31.54;29.19;101234.56;5059314;28;20490;-65
2022/06/17 09:41:07;;;;;;;3.67;2.70;;;;;;;31.39;29.52;101243.00;5057456;28;20416;-65
2022/06/17 09:43:40;;;;;;;4.32;2.67;;;;;;;31.28;29.90;101236.03;5058976;28;20978;-64
2022/06/17 09:46:14;;;;;;;3.50;2.38;;;;;;;31.30;30.41;101248.34;5069603;28;20407;-65
2022/06/17 09:48:48;;;;;;;4.07;3.00;;;;;;;31.38;30.09;101241.38;5067706;28;20426;-64
2022/06/17 09:51:19;;;;;;;6.60;3.10;;;;;;;31.39;30.69;101237.53;5066767;28;20788;-64
2022/06/17 09:53:52;;;;;;;4.77;3.23;;;;;;;31.34;30.86;101232.94;5068711;28;20415;-64
2022/06/17 09:56:28;;;;;;;20.33;4.20;;;;;;;31.35;30.82;101237.31;5069353;28;20410;-63
2022/06/17 09:59:02;;;;;;;5.03;2.50;;;;;;;31.32;30.52;101231.63;5067681;28;20513;-64
2022/06/17 10:01:30;;;;;;;4.55;2.80;;;;;;;31.20;30.58;101234.78;5070226;28;20415;-62
2022/06/17 10:03:58;;;;;;;5.30;2.80;;;;;;;31.12;30.30;101236.28;5067771;28;20494;-64
2022/06/17 10:06:47;;;;;;;3.83;2.65;;;;;;;31.06;30.75;101231.97;5068657;28;20431;-64
2022/06/17 10:09:27;;;;;;;4.45;2.70;;;;;;;31.04;30.82;101226.81;5064484;28;20494;-64
2022/06/17 10:12:01;;;;;;;3.08;2.72;;;;;;;30.93;31.09;101230.00;5069617;28;20411;-64
2022/06/17 10:14:44;;;;;;;3.97;2.72;;;;;;;30.97;30.92;101229.13;5069747;28;20410;-64
2022/06/17 10:20:17;;;;;;;3.92;2.70;;;;;;;30.79;31.07;101213.44;5061098;28;20472;-64
2022/06/17 10:22:55;;;;;;;6.38;2.80;;;;;;;30.93;31.31;101217.09;5070208;28;20415;-63
2022/06/17 10:25:37;;;;;;;4.60;2.90;;;;;;;30.93;30.84;101214.38;5065555;28;20430;-63
2022/06/17 10:28:23;;;;;;;3.95;2.70;;;;;;;30.84;31.17;101213.38;5067930;28;20502;-63
2022/06/17 10:30:57;;;;;;;5.32;3.10;;;;;;;30.96;31.31;101219.25;5054809;28;20433;-63
2022/06/17 10:33:24;;;;;;;4.03;2.70;;;;;;;31.04;31.36;101213.13;5070501;28;20411;-63
2022/06/17 10:35:52;;;;;;;5.03;2.90;;;;;;;31.16;31.36;101217.34;5068825;28;20430;-63
2022/06/17 10:38:22;;;;;;;3.75;2.55;;;;;;;31.21;31.18;101220.81;5060470;28;20420;-63
2022/06/17 10:40:50;;;;;;;5.45;2.80;;;;;;;31.22;31.07;101214.25;5055810;28;20564;-63
2022/06/17 10:43:22;;;;;;;4.40;2.67;;;;;;;31.37;30.62;101212.38;5052717;28;20409;-62
2022/06/17 10:45:49;;;;;;;4.93;2.53;;;;;;;31.50;30.09;101213.56;5062415;28;20417;-63
2022/06/17 10:48:33;;;;;;;7.87;3.10;;;;;;;31.50;30.10;101206.13;5062558;28;20482;-62
2022/06/17 10:51:01;;;;;;;3.27;2.80;;;;;;;31.60;30.21;101205.16;5064738;28;20458;-63
2022/06/17 10:53:35;;;;;;;5.65;2.80;;;;;;;31.67;30.47;101208.31;5069176;28;20439;-63
2022/06/17 10:56:09;;;;;;;2.78;2.50;;;;;;;31.71;30.21;101201.13;5061400;28;20411;-63
2022/06/17 10:58:40;;;;;;;3.40;2.55;;;;;;;31.67;30.58;101194.59;5064608;28;20411;-63
2022/06/17 11:01:11;;;;;;;4.70;2.50;;;;;;;31.71;29.85;101189.34;5064684;28;20430;-63
2022/06/17 11:03:39;;;;;;;5.13;2.53;;;;;;;31.82;28.67;101190.81;5070201;28;20410;-63
2022/06/17 11:06:16;;;;;;;4.88;2.55;;;;;;;31.82;29.25;101188.06;5066199;28;20415;-63
2022/06/17 11:08:53;;;;;;;3.78;2.70;;;;;;;31.82;29.06;101190.81;5064724;28;20493;-63
2022/06/17 11:14:26;;;;;;;3.67;2.40;;;;;;;31.76;28.60;101190.06;5060184;28;20492;-62
2022/06/17 11:19:19;;;;;;;3.92;2.20;;;;;;;31.68;28.39;101179.00;5110419;27;20458;-64
2022/06/17 11:21:50;;;;;;;4.25;2.50;;;;;;;31.80;28.68;101179.28;5104533;28;20935;-64
2022/06/17 11:24:23;;;;;;;3.53;2.22;;;;;;;31.87;27.89;101176.97;5098466;28;20408;-65
2022/06/17 11:27:05;;;;;;;3.35;2.10;;;;;;;31.95;27.87;101170.00;5095463;28;20499;-64
2022/06/17 11:29:38;;;;;;;2.70;2.00;;;;;;;32.01;27.64;101155.06;5093911;28;20418;-64
2022/06/17 11:32:24;;;;;;;3.50;2.20;;;;;;;32.05;27.81;101158.84;5101276;28;20483;-64
2022/06/17 11:34:55;;;;;;;3.10;2.10;;;;;;;32.14;27.43;101148.81;5090313;28;20495;-63
2022/06/17 11:37:26;;;;;;;4.30;2.30;;;;;;;32.22;28.12;101147.28;5102608;28;20428;-64
2022/06/17 11:40:10;;;;;;;3.90;2.20;;;;;;;32.26;27.95;101147.47;5104816;28;20411;-64
2022/06/17 11:42:46;;;;;;;3.10;2.20;;;;;;;32.27;27.68;101143.59;5106411;28;20522;-64
2022/06/17 11:45:17;;;;;;;3.13;1.88;;;;;;;32.24;26.17;101141.47;5089036;28;20926;-65
2022/06/17 11:47:49;;;;;;;3.25;2.20;;;;;;;32.20;26.86;101136.59;5099306;28;20417;-65
2022/06/17 11:50:21;;;;;;;4.25;2.30;;;;;;;32.30;27.09;101134.75;5103560;28;20412;-64
2022/06/17 11:52:50;;;;;;;3.92;2.20;;;;;;;32.40;26.84;101131.81;5098421;28;20420;-65
2022/06/17 11:55:18;;;;;;;2.95;2.45;;;;;;;32.44;27.37;101127.31;5102496;28;20422;-64
2022/06/17 11:57:45;;;;;;;2.90;2.20;;;;;;;32.48;27.70;101124.75;5096957;28;20436;-65
2022/06/17 12:00:26;;;;;;;3.08;2.25;;;;;;;32.54;27.23;101120.81;5101427;28;20486;-65